sensor_id;sensor_type;location;lat;lon;timestamp;temperature;humidity
6443;DHT22;3254;47.372;8.512;2022-09-11T00:00:49;14.70;14.80
6443;DHT22;3254;47.372;8.512;2022-09-11T00:03:16;14.70;15.00
6443;DHT22;3254;47.372;8.512;2022-09-11T00:05:43;14.60;15.40
6443;DHT22;3254;47.372;8.512;2022-09-11T00:08:13;14.50;17.40
6443;DHT22;3254;47.372;8.512;2022-09-11T00:10:41;14.40;18.20
6443;DHT22;3254;47.372;8.512;2022-09-11T00:13:09;14.50;16.70
6443;DHT22;3254;47.372;8.512;2022-09-11T00:15:39;14.60;17.70
6443;DHT22;3254;47.372;8.512;2022-09-11T00:18:06;14.70;15.20
6443;DHT22;3254;47.372;8.512;2022-09-11T00:20:32;14.70;17.50
6443;DHT22;3254;47.372;8.512;2022-09-11T00:23:00;14.60;18.70
6443;DHT22;3254;47.372;8.512;2022-09-11T00:25:32;14.60;19.20
6443;DHT22;3254;47.372;8.512;2022-09-11T00:27:58;14.60;19.70
6443;DHT22;3254;47.372;8.512;2022-09-11T00:30:23;14.50;20.60
6443;DHT22;3254;47.372;8.512;2022-09-11T00:32:49;14.50;20.60
6443;DHT22;3254;47.372;8.512;2022-09-11T00:35:15;14.60;20.70
6443;DHT22;3254;47.372;8.512;2022-09-11T00:37:40;14.60;19.90
6443;DHT22;3254;47.372;8.512;2022-09-11T00:40:06;14.60;18.90
6443;DHT22;3254;47.372;8.512;2022-09-11T00:42:32;14.60;17.60
6443;DHT22;3254;47.372;8.512;2022-09-11T00:45:01;14.60;19.00
6443;DHT22;3254;47.372;8.512;2022-09-11T00:47:28;14.70;18.70
6443;DHT22;3254;47.372;8.512;2022-09-11T00:49:55;14.70;16.20
6443;DHT22;3254;47.372;8.512;2022-09-11T00:52:29;14.70;15.70
6443;DHT22;3254;47.372;8.512;2022-09-11T00:55:06;14.60;16.20
6443;DHT22;3254;47.372;8.512;2022-09-11T00:57:38;14.60;17.20
6443;DHT22;3254;47.372;8.512;2022-09-11T01:00:06;14.60;18.40
6443;DHT22;3254;47.372;8.512;2022-09-11T01:02:34;14.60;17.20
6443;DHT22;3254;47.372;8.512;2022-09-11T01:05:02;14.70;16.20
6443;DHT22;3254;47.372;8.512;2022-09-11T01:07:29;14.60;15.10
6443;DHT22;3254;47.372;8.512;2022-09-11T01:09:56;14.60;14.80
6443;DHT22;3254;47.372;8.512;2022-09-11T01:12:49;14.70;12.70
6443;DHT22;3254;47.372;8.512;2022-09-11T01:18:47;14.80;10.80
6443;DHT22;3254;47.372;8.512;2022-09-11T01:33:04;14.70;10.70
6443;DHT22;3254;47.372;8.512;2022-09-11T01:35:56;14.70;11.50
6443;DHT22;3254;47.372;8.512;2022-09-11T01:38:36;14.70;10.30
6443;DHT22;3254;47.372;8.512;2022-09-11T01:43:38;14.60;11.50
6443;DHT22;3254;47.372;8.512;2022-09-11T01:46:06;14.60;10.30
6443;DHT22;3254;47.372;8.512;2022-09-11T01:48:39;14.70;10.70
6443;DHT22;3254;47.372;8.512;2022-09-11T01:51:08;14.70;10.80
6443;DHT22;3254;47.372;8.512;2022-09-11T01:53:38;14.60;10.90
6443;DHT22;3254;47.372;8.512;2022-09-11T01:56:15;14.60;10.50
6443;DHT22;3254;47.372;8.512;2022-09-11T01:58:45;14.60;10.50
6443;DHT22;3254;47.372;8.512;2022-09-11T02:01:17;14.70;9.70
6443;DHT22;3254;47.372;8.512;2022-09-11T02:03:53;14.60;9.50
6443;DHT22;3254;47.372;8.512;2022-09-11T02:06:27;14.70;8.90
6443;DHT22;3254;47.372;8.512;2022-09-11T02:09:02;14.60;9.40
6443;DHT22;3254;47.372;8.512;2022-09-11T02:11:32;14.70;9.10
6443;DHT22;3254;47.372;8.512;2022-09-11T02:16:50;14.60;9.70
6443;DHT22;3254;47.372;8.512;2022-09-11T02:19:18;14.70;11.00
6443;DHT22;3254;47.372;8.512;2022-09-11T02:21:45;14.70;11.40
6443;DHT22;3254;47.372;8.512;2022-09-11T02:24:16;14.60;11.90
6443;DHT22;3254;47.372;8.512;2022-09-11T02:26:46;14.60;12.50
6443;DHT22;3254;47.372;8.512;2022-09-11T02:29:13;14.60;12.40
6443;DHT22;3254;47.372;8.512;2022-09-11T02:31:40;14.60;12.70
6443;DHT22;3254;47.372;8.512;2022-09-11T02:34:07;14.70;10.80
6443;DHT22;3254;47.372;8.512;2022-09-11T02:42:29;14.70;9.10
6443;DHT22;3254;47.372;8.512;2022-09-11T02:45:27;14.70;11.60
6443;DHT22;3254;47.372;8.512;2022-09-11T02:48:17;14.70;11.40
6443;DHT22;3254;47.372;8.512;2022-09-11T02:56:12;14.80;13.50
6443;DHT22;3254;47.372;8.512;2022-09-11T02:58:54;14.80;12.70
6443;DHT22;3254;47.372;8.512;2022-09-11T03:01:21;14.70;14.30
6443;DHT22;3254;47.372;8.512;2022-09-11T03:03:47;14.70;14.00
6443;DHT22;3254;47.372;8.512;2022-09-11T03:06:22;14.70;14.70
6443;DHT22;3254;47.372;8.512;2022-09-11T03:08:49;14.70;14.70
6443;DHT22;3254;47.372;8.512;2022-09-11T03:11:15;14.60;13.30
6443;DHT22;3254;47.372;8.512;2022-09-11T03:13:42;14.70;14.60
6443;DHT22;3254;47.372;8.512;2022-09-11T03:16:09;14.70;13.90
6443;DHT22;3254;47.372;8.512;2022-09-11T03:18:35;14.70;15.00
6443;DHT22;3254;47.372;8.512;2022-09-11T03:21:01;14.70;17.40
6443;DHT22;3254;47.372;8.512;2022-09-11T03:23:28;14.70;21.80
6443;DHT22;3254;47.372;8.512;2022-09-11T03:25:54;14.50;24.30
6443;DHT22;3254;47.372;8.512;2022-09-11T03:28:20;14.40;34.60
6443;DHT22;3254;47.372;8.512;2022-09-11T03:30:49;14.20;41.90
6443;DHT22;3254;47.372;8.512;2022-09-11T03:33:17;14.00;45.50
6443;DHT22;3254;47.372;8.512;2022-09-11T03:35:43;13.90;53.50
6443;DHT22;3254;47.372;8.512;2022-09-11T03:38:09;13.80;59.90
6443;DHT22;3254;47.372;8.512;2022-09-11T03:40:36;13.70;78.40
6443;DHT22;3254;47.372;8.512;2022-09-11T03:43:02;13.60;91.30
6443;DHT22;3254;47.372;8.512;2022-09-11T03:45:28;13.60;91.20
6443;DHT22;3254;47.372;8.512;2022-09-11T03:47:54;13.60;96.60
6443;DHT22;3254;47.372;8.512;2022-09-11T03:50:19;13.60;99.90
6443;DHT22;3254;47.372;8.512;2022-09-11T03:52:45;13.60;99.90
6443;DHT22;3254;47.372;8.512;2022-09-11T03:55:10;13.50;99.90
6443;DHT22;3254;47.372;8.512;2022-09-11T03:57:36;13.50;99.90
6443;DHT22;3254;47.372;8.512;2022-09-11T04:00:04;13.50;99.90
6443;DHT22;3254;47.372;8.512;2022-09-11T04:02:29;13.40;99.90
6443;DHT22;3254;47.372;8.512;2022-09-11T04:04:56;13.40;99.90
6443;DHT22;3254;47.372;8.512;2022-09-11T04:07:22;13.40;99.90
6443;DHT22;3254;47.372;8.512;2022-09-11T04:09:48;13.30;99.90
6443;DHT22;3254;47.372;8.512;2022-09-11T04:12:13;13.30;99.90
6443;DHT22;3254;47.372;8.512;2022-09-11T04:14:40;13.30;99.90
6443;DHT22;3254;47.372;8.512;2022-09-11T04:17:06;13.30;99.90
6443;DHT22;3254;47.372;8.512;2022-09-11T04:19:33;13.30;99.90
6443;DHT22;3254;47.372;8.512;2022-09-11T04:21:59;13.30;99.90
6443;DHT22;3254;47.372;8.512;2022-09-11T04:24:24;13.30;99.90
6443;DHT22;3254;47.372;8.512;2022-09-11T04:26:50;13.30;99.90
6443;DHT22;3254;47.372;8.512;2022-09-11T04:29:15;13.30;99.90
6443;DHT22;3254;47.372;8.512;2022-09-11T04:31:42;13.30;99.90
6443;DHT22;3254;47.372;8.512;2022-09-11T04:34:08;13.20;99.90
6443;DHT22;3254;47.372;8.512;2022-09-11T04:36:34;13.30;99.90
6443;DHT22;3254;47.372;8.512;2022-09-11T04:39:00;13.20;99.90
6443;DHT22;3254;47.372;8.512;2022-09-11T04:41:26;13.30;99.90
6443;DHT22;3254;47.372;8.512;2022-09-11T04:43:56;13.30;99.90
6443;DHT22;3254;47.372;8.512;2022-09-11T04:46:23;13.30;99.90
6443;DHT22;3254;47.372;8.512;2022-09-11T04:48:51;13.30;99.90
6443;DHT22;3254;47.372;8.512;2022-09-11T04:51:34;13.30;99.90
6443;DHT22;3254;47.372;8.512;2022-09-11T04:54:01;13.30;99.90
6443;DHT22;3254;47.372;8.512;2022-09-11T04:56:29;13.30;99.90
6443;DHT22;3254;47.372;8.512;2022-09-11T04:59:00;13.20;99.90
6443;DHT22;3254;47.372;8.512;2022-09-11T05:01:27;13.20;99.90
6443;DHT22;3254;47.372;8.512;2022-09-11T05:03:53;13.10;99.90
6443;DHT22;3254;47.372;8.512;2022-09-11T05:06:21;13.10;99.90
6443;DHT22;3254;47.372;8.512;2022-09-11T05:08:47;13.00;99.90
6443;DHT22;3254;47.372;8.512;2022-09-11T05:11:15;12.90;99.90
6443;DHT22;3254;47.372;8.512;2022-09-11T05:13:42;13.00;99.90
6443;DHT22;3254;47.372;8.512;2022-09-11T05:16:16;13.00;99.90
6443;DHT22;3254;47.372;8.512;2022-09-11T05:18:47;13.00;99.90
6443;DHT22;3254;47.372;8.512;2022-09-11T05:21:14;12.90;99.90
6443;DHT22;3254;47.372;8.512;2022-09-11T05:23:41;12.90;99.90
6443;DHT22;3254;47.372;8.512;2022-09-11T05:26:13;12.90;99.90
6443;DHT22;3254;47.372;8.512;2022-09-11T05:28:39;12.90;99.90
6443;DHT22;3254;47.372;8.512;2022-09-11T05:31:13;12.90;99.90
6443;DHT22;3254;47.372;8.512;2022-09-11T05:33:41;12.90;99.90
6443;DHT22;3254;47.372;8.512;2022-09-11T05:36:08;12.90;99.90
6443;DHT22;3254;47.372;8.512;2022-09-11T05:38:35;12.80;99.90
6443;DHT22;3254;47.372;8.512;2022-09-11T05:41:05;12.70;99.90
6443;DHT22;3254;47.372;8.512;2022-09-11T05:43:32;12.80;99.90
6443;DHT22;3254;47.372;8.512;2022-09-11T05:45:58;12.90;99.90
6443;DHT22;3254;47.372;8.512;2022-09-11T05:48:26;13.00;99.90
6443;DHT22;3254;47.372;8.512;2022-09-11T05:50:54;13.10;99.90
6443;DHT22;3254;47.372;8.512;2022-09-11T05:53:21;13.20;99.90
6443;DHT22;3254;47.372;8.512;2022-09-11T05:55:48;13.30;99.90
6443;DHT22;3254;47.372;8.512;2022-09-11T05:58:14;13.40;99.90
6443;DHT22;3254;47.372;8.512;2022-09-11T06:00:44;13.60;99.90
6443;DHT22;3254;47.372;8.512;2022-09-11T06:03:18;13.70;99.90
6443;DHT22;3254;47.372;8.512;2022-09-11T06:05:44;13.80;99.90
6443;DHT22;3254;47.372;8.512;2022-09-11T06:08:10;13.90;99.90
6443;DHT22;3254;47.372;8.512;2022-09-11T06:10:45;14.00;99.90
6443;DHT22;3254;47.372;8.512;2022-09-11T06:13:11;14.00;99.90
6443;DHT22;3254;47.372;8.512;2022-09-11T06:15:43;14.10;99.90
6443;DHT22;3254;47.372;8.512;2022-09-11T06:18:09;14.10;99.90
6443;DHT22;3254;47.372;8.512;2022-09-11T06:20:35;14.20;99.90
6443;DHT22;3254;47.372;8.512;2022-09-11T06:23:00;14.20;98.20
6443;DHT22;3254;47.372;8.512;2022-09-11T06:25:26;14.20;97.00
6443;DHT22;3254;47.372;8.512;2022-09-11T06:27:52;14.30;96.00
6443;DHT22;3254;47.372;8.512;2022-09-11T06:30:17;14.40;95.90
6443;DHT22;3254;47.372;8.512;2022-09-11T06:32:43;14.40;95.20
6443;DHT22;3254;47.372;8.512;2022-09-11T06:35:08;14.50;94.30
6443;DHT22;3254;47.372;8.512;2022-09-11T06:37:34;14.70;92.90
6443;DHT22;3254;47.372;8.512;2022-09-11T06:40:00;14.90;90.40
6443;DHT22;3254;47.372;8.512;2022-09-11T06:42:26;15.00;83.90
6443;DHT22;3254;47.372;8.512;2022-09-11T06:44:53;15.30;75.40
6443;DHT22;3254;47.372;8.512;2022-09-11T06:47:18;15.40;67.30
6443;DHT22;3254;47.372;8.512;2022-09-11T06:49:45;15.60;61.40
6443;DHT22;3254;47.372;8.512;2022-09-11T06:52:10;15.80;54.70
6443;DHT22;3254;47.372;8.512;2022-09-11T06:54:36;15.90;52.30
6443;DHT22;3254;47.372;8.512;2022-09-11T06:57:02;16.20;46.90
6443;DHT22;3254;47.372;8.512;2022-09-11T06:59:27;16.40;40.90
6443;DHT22;3254;47.372;8.512;2022-09-11T07:01:53;16.60;31.00
6443;DHT22;3254;47.372;8.512;2022-09-11T07:04:19;16.60;28.60
6443;DHT22;3254;47.372;8.512;2022-09-11T07:06:45;16.70;28.10
6443;DHT22;3254;47.372;8.512;2022-09-11T07:09:11;16.70;24.40
6443;DHT22;3254;47.372;8.512;2022-09-11T07:11:36;16.70;21.80
6443;DHT22;3254;47.372;8.512;2022-09-11T07:14:03;16.70;22.60
6443;DHT22;3254;47.372;8.512;2022-09-11T07:16:31;16.60;20.20
6443;DHT22;3254;47.372;8.512;2022-09-11T07:18:57;16.40;20.40
6443;DHT22;3254;47.372;8.512;2022-09-11T07:21:25;16.20;21.20
6443;DHT22;3254;47.372;8.512;2022-09-11T07:23:53;16.10;22.00
6443;DHT22;3254;47.372;8.512;2022-09-11T07:26:21;15.90;23.30
6443;DHT22;3254;47.372;8.512;2022-09-11T07:28:47;15.80;21.70
6443;DHT22;3254;47.372;8.512;2022-09-11T07:31:18;16.00;21.50
6443;DHT22;3254;47.372;8.512;2022-09-11T07:33:45;16.70;18.90
6443;DHT22;3254;47.372;8.512;2022-09-11T07:36:17;17.90;11.70
6443;DHT22;3254;47.372;8.512;2022-09-11T07:38:45;19.60;1.00
6443;DHT22;3254;47.372;8.512;2022-09-11T07:41:13;20.90;1.00
6443;DHT22;3254;47.372;8.512;2022-09-11T07:43:40;22.30;1.00
6443;DHT22;3254;47.372;8.512;2022-09-11T07:46:15;23.60;1.00
6443;DHT22;3254;47.372;8.512;2022-09-11T07:48:41;24.70;1.00
6443;DHT22;3254;47.372;8.512;2022-09-11T07:51:09;24.60;1.00
6443;DHT22;3254;47.372;8.512;2022-09-11T07:53:44;24.70;1.00
6443;DHT22;3254;47.372;8.512;2022-09-11T07:56:21;24.20;1.00
6443;DHT22;3254;47.372;8.512;2022-09-11T07:58:48;24.10;1.00
6443;DHT22;3254;47.372;8.512;2022-09-11T08:01:17;24.10;1.00
6443;DHT22;3254;47.372;8.512;2022-09-11T08:03:44;24.30;1.00
6443;DHT22;3254;47.372;8.512;2022-09-11T08:06:16;22.10;1.00
6443;DHT22;3254;47.372;8.512;2022-09-11T08:08:42;20.70;1.00
6443;DHT22;3254;47.372;8.512;2022-09-11T08:11:13;20.00;1.00
6443;DHT22;3254;47.372;8.512;2022-09-11T08:13:39;20.00;1.00
6443;DHT22;3254;47.372;8.512;2022-09-11T08:16:06;20.90;1.00
6443;DHT22;3254;47.372;8.512;2022-09-11T08:18:32;22.30;1.00
6443;DHT22;3254;47.372;8.512;2022-09-11T08:21:04;22.80;1.00
6443;DHT22;3254;47.372;8.512;2022-09-11T08:23:31;24.20;1.00
6443;DHT22;3254;47.372;8.512;2022-09-11T08:28:34;26.20;1.00
6443;DHT22;3254;47.372;8.512;2022-09-11T08:31:00;26.20;1.00
6443;DHT22;3254;47.372;8.512;2022-09-11T08:33:29;25.50;1.00
6443;DHT22;3254;47.372;8.512;2022-09-11T08:35:57;24.10;1.00
6443;DHT22;3254;47.372;8.512;2022-09-11T08:38:23;23.70;1.00
6443;DHT22;3254;47.372;8.512;2022-09-11T08:40:49;22.20;1.00
6443;DHT22;3254;47.372;8.512;2022-09-11T08:43:32;21.40;1.00
6443;DHT22;3254;47.372;8.512;2022-09-11T08:46:02;21.20;1.00
6443;DHT22;3254;47.372;8.512;2022-09-11T08:51:23;22.40;1.00
6443;DHT22;3254;47.372;8.512;2022-09-11T08:53:51;23.00;1.00
6443;DHT22;3254;47.372;8.512;2022-09-11T08:56:22;24.30;1.00
6443;DHT22;3254;47.372;8.512;2022-09-11T09:01:31;25.50;1.00
6443;DHT22;3254;47.372;8.512;2022-09-11T09:07:04;26.00;1.00
6443;DHT22;3254;47.372;8.512;2022-09-11T09:12:29;23.50;1.00
6443;DHT22;3254;47.372;8.512;2022-09-11T09:17:31;22.10;1.00
6443;DHT22;3254;47.372;8.512;2022-09-11T09:20:04;21.50;1.00
6443;DHT22;3254;47.372;8.512;2022-09-11T09:22:44;21.20;1.00
6443;DHT22;3254;47.372;8.512;2022-09-11T09:25:17;20.90;1.00
6443;DHT22;3254;47.372;8.512;2022-09-11T09:27:47;22.10;1.00
6443;DHT22;3254;47.372;8.512;2022-09-11T09:30:19;24.00;1.00
6443;DHT22;3254;47.372;8.512;2022-09-11T09:33:02;26.00;1.00
6443;DHT22;3254;47.372;8.512;2022-09-11T09:35:42;28.10;1.00
6443;DHT22;3254;47.372;8.512;2022-09-11T09:38:18;29.20;1.00
6443;DHT22;3254;47.372;8.512;2022-09-11T09:47:02;24.50;1.00
6443;DHT22;3254;47.372;8.512;2022-09-11T09:49:33;23.50;1.00
6443;DHT22;3254;47.372;8.512;2022-09-11T09:52:14;23.30;1.00
6443;DHT22;3254;47.372;8.512;2022-09-11T09:54:42;24.00;1.00
6443;DHT22;3254;47.372;8.512;2022-09-11T09:57:10;25.00;1.00
6443;DHT22;3254;47.372;8.512;2022-09-11T09:59:56;26.00;1.00
6443;DHT22;3254;47.372;8.512;2022-09-11T10:02:45;27.10;1.00
6443;DHT22;3254;47.372;8.512;2022-09-11T10:07:57;26.30;1.00
6443;DHT22;3254;47.372;8.512;2022-09-11T10:10:35;25.70;1.00
6443;DHT22;3254;47.372;8.512;2022-09-11T10:15:39;29.10;1.00
6443;DHT22;3254;47.372;8.512;2022-09-11T10:26:38;28.20;1.00
6443;DHT22;3254;47.372;8.512;2022-09-11T10:29:23;29.30;1.00
6443;DHT22;3254;47.372;8.512;2022-09-11T10:31:55;28.60;1.00
6443;DHT22;3254;47.372;8.512;2022-09-11T10:34:23;28.20;1.00
6443;DHT22;3254;47.372;8.512;2022-09-11T10:37:00;29.40;1.00
6443;DHT22;3254;47.372;8.512;2022-09-11T10:39:29;31.10;1.00
6443;DHT22;3254;47.372;8.512;2022-09-11T10:41:57;30.50;1.00
6443;DHT22;3254;47.372;8.512;2022-09-11T10:44:25;29.60;1.00
6443;DHT22;3254;47.372;8.512;2022-09-11T10:47:22;30.10;1.00
6443;DHT22;3254;47.372;8.512;2022-09-11T10:49:48;29.90;1.00
6443;DHT22;3254;47.372;8.512;2022-09-11T10:52:17;30.20;1.00
6443;DHT22;3254;47.372;8.512;2022-09-11T10:55:08;29.80;1.00
6443;DHT22;3254;47.372;8.512;2022-09-11T10:57:52;29.40;1.00
6443;DHT22;3254;47.372;8.512;2022-09-11T11:00:28;29.90;1.00
6443;DHT22;3254;47.372;8.512;2022-09-11T11:02:57;29.20;1.00
6443;DHT22;3254;47.372;8.512;2022-09-11T11:08:28;29.50;1.00
6443;DHT22;3254;47.372;8.512;2022-09-11T11:11:27;30.30;1.00
6443;DHT22;3254;47.372;8.512;2022-09-11T11:14:58;30.00;1.00
6443;DHT22;3254;47.372;8.512;2022-09-11T11:28:22;31.90;1.00
6443;DHT22;3254;47.372;8.512;2022-09-11T11:36:53;31.70;1.00
6443;DHT22;3254;47.372;8.512;2022-09-11T11:39:46;29.30;1.00
6443;DHT22;3254;47.372;8.512;2022-09-11T11:42:30;28.00;1.00
6443;DHT22;3254;47.372;8.512;2022-09-11T11:47:45;25.50;1.00
6443;DHT22;3254;47.372;8.512;2022-09-11T11:52:47;24.40;1.00
6443;DHT22;3254;47.372;8.512;2022-09-11T11:55:22;24.00;1.00
6443;DHT22;3254;47.372;8.512;2022-09-11T12:00:42;23.60;1.00
6443;DHT22;3254;47.372;8.512;2022-09-11T12:03:17;24.60;1.00
6443;DHT22;3254;47.372;8.512;2022-09-11T12:05:46;25.50;1.00
6443;DHT22;3254;47.372;8.512;2022-09-11T12:08:15;25.60;1.00
6443;DHT22;3254;47.372;8.512;2022-09-11T12:11:02;25.40;1.00
6443;DHT22;3254;47.372;8.512;2022-09-11T12:13:35;26.20;1.00
6443;DHT22;3254;47.372;8.512;2022-09-11T12:16:08;28.10;1.00
6443;DHT22;3254;47.372;8.512;2022-09-11T12:18:35;30.00;1.00
6443;DHT22;3254;47.372;8.512;2022-09-11T12:26:23;32.40;1.00
6443;DHT22;3254;47.372;8.512;2022-09-11T12:37:11;33.70;1.00
6443;DHT22;3254;47.372;8.512;2022-09-11T12:40:10;35.10;1.00
6443;DHT22;3254;47.372;8.512;2022-09-11T12:44:57;36.00;1.00
6443;DHT22;3254;47.372;8.512;2022-09-11T12:47:35;35.80;1.00
6443;DHT22;3254;47.372;8.512;2022-09-11T12:52:48;35.80;1.00
6443;DHT22;3254;47.372;8.512;2022-09-11T12:55:39;36.30;1.00
6443;DHT22;3254;47.372;8.512;2022-09-11T13:00:48;37.00;1.00
6443;DHT22;3254;47.372;8.512;2022-09-11T13:03:23;35.80;1.00
6443;DHT22;3254;47.372;8.512;2022-09-11T13:05:57;34.20;1.00
6443;DHT22;3254;47.372;8.512;2022-09-11T13:08:26;34.80;1.00
6443;DHT22;3254;47.372;8.512;2022-09-11T13:13:57;36.10;1.00
6443;DHT22;3254;47.372;8.512;2022-09-11T13:16:26;36.90;1.00
6443;DHT22;3254;47.372;8.512;2022-09-11T13:19:14;37.00;1.00
6443;DHT22;3254;47.372;8.512;2022-09-11T13:21:42;36.00;1.00
6443;DHT22;3254;47.372;8.512;2022-09-11T13:24:24;35.20;1.00
6443;DHT22;3254;47.372;8.512;2022-09-11T13:26:56;35.40;1.00
6443;DHT22;3254;47.372;8.512;2022-09-11T13:29:26;35.20;1.00
6443;DHT22;3254;47.372;8.512;2022-09-11T13:31:54;35.80;1.00
6443;DHT22;3254;47.372;8.512;2022-09-11T13:34:24;36.00;1.00
6443;DHT22;3254;47.372;8.512;2022-09-11T13:36:51;35.80;1.00
6443;DHT22;3254;47.372;8.512;2022-09-11T13:39:18;35.80;1.00
6443;DHT22;3254;47.372;8.512;2022-09-11T13:41:46;35.70;1.00
6443;DHT22;3254;47.372;8.512;2022-09-11T13:46:52;36.20;1.00
6443;DHT22;3254;47.372;8.512;2022-09-11T13:49:32;36.80;1.00
6443;DHT22;3254;47.372;8.512;2022-09-11T13:51:59;36.70;1.00
6443;DHT22;3254;47.372;8.512;2022-09-11T13:54:28;36.80;1.00
6443;DHT22;3254;47.372;8.512;2022-09-11T13:59:52;37.60;1.00
6443;DHT22;3254;47.372;8.512;2022-09-11T14:02:27;37.10;1.00
6443;DHT22;3254;47.372;8.512;2022-09-11T14:07:29;37.50;1.00
6443;DHT22;3254;47.372;8.512;2022-09-11T14:10:05;37.10;1.00
6443;DHT22;3254;47.372;8.512;2022-09-11T14:12:34;37.20;1.00
6443;DHT22;3254;47.372;8.512;2022-09-11T14:15:20;37.30;1.00
6443;DHT22;3254;47.372;8.512;2022-09-11T14:17:48;37.10;1.00
6443;DHT22;3254;47.372;8.512;2022-09-11T14:20:17;37.30;1.00
6443;DHT22;3254;47.372;8.512;2022-09-11T14:22:44;37.00;1.00
6443;DHT22;3254;47.372;8.512;2022-09-11T14:25:19;37.40;1.00
6443;DHT22;3254;47.372;8.512;2022-09-11T14:27:46;38.40;1.00
6443;DHT22;3254;47.372;8.512;2022-09-11T14:30:30;38.40;1.00
6443;DHT22;3254;47.372;8.512;2022-09-11T14:33:16;37.70;1.00
6443;DHT22;3254;47.372;8.512;2022-09-11T14:35:44;37.60;1.00
6443;DHT22;3254;47.372;8.512;2022-09-11T14:38:12;37.10;1.00
6443;DHT22;3254;47.372;8.512;2022-09-11T14:40:52;36.50;1.00
6443;DHT22;3254;47.372;8.512;2022-09-11T14:43:24;36.80;1.00
6443;DHT22;3254;47.372;8.512;2022-09-11T14:45:50;37.30;1.00
6443;DHT22;3254;47.372;8.512;2022-09-11T14:48:19;37.90;1.00
6443;DHT22;3254;47.372;8.512;2022-09-11T14:50:45;38.10;1.00
6443;DHT22;3254;47.372;8.512;2022-09-11T14:53:16;38.00;1.00
6443;DHT22;3254;47.372;8.512;2022-09-11T14:55:44;38.00;1.00
6443;DHT22;3254;47.372;8.512;2022-09-11T14:58:10;37.70;1.00
6443;DHT22;3254;47.372;8.512;2022-09-11T15:00:36;37.50;1.00
6443;DHT22;3254;47.372;8.512;2022-09-11T15:03:02;37.50;1.00
6443;DHT22;3254;47.372;8.512;2022-09-11T15:05:28;37.40;1.00
6443;DHT22;3254;47.372;8.512;2022-09-11T15:07:54;37.80;1.00
6443;DHT22;3254;47.372;8.512;2022-09-11T15:10:19;37.80;1.00
6443;DHT22;3254;47.372;8.512;2022-09-11T15:12:46;38.00;1.00
6443;DHT22;3254;47.372;8.512;2022-09-11T15:15:13;37.70;1.00
6443;DHT22;3254;47.372;8.512;2022-09-11T15:17:39;38.10;1.00
6443;DHT22;3254;47.372;8.512;2022-09-11T15:20:05;37.50;1.00
6443;DHT22;3254;47.372;8.512;2022-09-11T15:22:33;37.70;1.00
6443;DHT22;3254;47.372;8.512;2022-09-11T15:24:59;38.40;1.00
6443;DHT22;3254;47.372;8.512;2022-09-11T15:27:26;37.50;1.00
6443;DHT22;3254;47.372;8.512;2022-09-11T15:29:53;37.40;1.00
6443;DHT22;3254;47.372;8.512;2022-09-11T15:32:19;37.80;1.00
6443;DHT22;3254;47.372;8.512;2022-09-11T15:34:45;38.50;1.00
6443;DHT22;3254;47.372;8.512;2022-09-11T15:37:11;38.90;1.00
6443;DHT22;3254;47.372;8.512;2022-09-11T15:39:38;38.50;1.00
6443;DHT22;3254;47.372;8.512;2022-09-11T15:42:04;37.90;1.00
6443;DHT22;3254;47.372;8.512;2022-09-11T15:44:34;37.90;1.00
6443;DHT22;3254;47.372;8.512;2022-09-11T15:47:00;38.50;1.00
6443;DHT22;3254;47.372;8.512;2022-09-11T15:49:26;38.30;1.00
6443;DHT22;3254;47.372;8.512;2022-09-11T15:51:56;38.00;1.00
6443;DHT22;3254;47.372;8.512;2022-09-11T15:54:22;37.80;1.00
6443;DHT22;3254;47.372;8.512;2022-09-11T15:56:48;38.10;1.00
6443;DHT22;3254;47.372;8.512;2022-09-11T15:59:14;38.60;1.00
6443;DHT22;3254;47.372;8.512;2022-09-11T16:01:41;38.10;1.00
6443;DHT22;3254;47.372;8.512;2022-09-11T16:04:09;37.60;1.00
6443;DHT22;3254;47.372;8.512;2022-09-11T16:06:37;37.30;1.00
6443;DHT22;3254;47.372;8.512;2022-09-11T16:09:28;37.80;1.00
6443;DHT22;3254;47.372;8.512;2022-09-11T16:11:54;37.50;1.00
6443;DHT22;3254;47.372;8.512;2022-09-11T16:14:23;37.40;1.00
6443;DHT22;3254;47.372;8.512;2022-09-11T16:16:50;37.20;1.00
6443;DHT22;3254;47.372;8.512;2022-09-11T16:19:17;37.20;1.00
6443;DHT22;3254;47.372;8.512;2022-09-11T16:21:43;37.40;1.00
6443;DHT22;3254;47.372;8.512;2022-09-11T16:24:09;37.30;1.00
6443;DHT22;3254;47.372;8.512;2022-09-11T16:26:36;37.00;1.00
6443;DHT22;3254;47.372;8.512;2022-09-11T16:29:07;36.40;1.00
6443;DHT22;3254;47.372;8.512;2022-09-11T16:31:33;36.00;1.00
6443;DHT22;3254;47.372;8.512;2022-09-11T16:34:02;36.20;1.00
6443;DHT22;3254;47.372;8.512;2022-09-11T16:36:29;35.70;1.00
6443;DHT22;3254;47.372;8.512;2022-09-11T16:38:56;35.50;1.00
6443;DHT22;3254;47.372;8.512;2022-09-11T16:41:22;35.00;1.00
6443;DHT22;3254;47.372;8.512;2022-09-11T16:43:51;34.40;1.00
6443;DHT22;3254;47.372;8.512;2022-09-11T16:46:22;33.90;1.00
6443;DHT22;3254;47.372;8.512;2022-09-11T16:48:49;33.20;1.00
6443;DHT22;3254;47.372;8.512;2022-09-11T16:51:17;32.80;1.00
6443;DHT22;3254;47.372;8.512;2022-09-11T16:53:44;32.70;1.00
6443;DHT22;3254;47.372;8.512;2022-09-11T16:56:18;32.40;1.00
6443;DHT22;3254;47.372;8.512;2022-09-11T16:58:44;32.10;1.00
6443;DHT22;3254;47.372;8.512;2022-09-11T17:01:13;31.10;1.00
6443;DHT22;3254;47.372;8.512;2022-09-11T17:03:41;31.00;1.00
6443;DHT22;3254;47.372;8.512;2022-09-11T17:06:08;31.40;1.00
6443;DHT22;3254;47.372;8.512;2022-09-11T17:08:34;32.00;1.00
6443;DHT22;3254;47.372;8.512;2022-09-11T17:11:05;31.60;1.00
6443;DHT22;3254;47.372;8.512;2022-09-11T17:13:31;31.30;1.00
6443;DHT22;3254;47.372;8.512;2022-09-11T17:16:01;31.50;1.00
6443;DHT22;3254;47.372;8.512;2022-09-11T17:18:27;30.70;1.00
6443;DHT22;3254;47.372;8.512;2022-09-11T17:20:57;30.30;1.00
6443;DHT22;3254;47.372;8.512;2022-09-11T17:23:24;29.30;1.00
6443;DHT22;3254;47.372;8.512;2022-09-11T17:25:50;27.70;1.00
6443;DHT22;3254;47.372;8.512;2022-09-11T17:28:18;26.60;1.00
6443;DHT22;3254;47.372;8.512;2022-09-11T17:30:45;25.80;1.00
6443;DHT22;3254;47.372;8.512;2022-09-11T17:33:11;25.10;1.00
6443;DHT22;3254;47.372;8.512;2022-09-11T17:35:36;24.50;1.00
6443;DHT22;3254;47.372;8.512;2022-09-11T17:38:03;24.10;1.00
6443;DHT22;3254;47.372;8.512;2022-09-11T17:40:30;23.60;1.00
6443;DHT22;3254;47.372;8.512;2022-09-11T17:42:56;23.30;1.00
6443;DHT22;3254;47.372;8.512;2022-09-11T17:45:22;23.10;1.00
6443;DHT22;3254;47.372;8.512;2022-09-11T17:47:49;22.80;1.00
6443;DHT22;3254;47.372;8.512;2022-09-11T17:50:15;22.50;1.00
6443;DHT22;3254;47.372;8.512;2022-09-11T17:52:41;22.20;1.00
6443;DHT22;3254;47.372;8.512;2022-09-11T17:55:06;22.00;1.00
6443;DHT22;3254;47.372;8.512;2022-09-11T17:57:33;21.80;1.00
6443;DHT22;3254;47.372;8.512;2022-09-11T17:59:59;21.60;1.00
6443;DHT22;3254;47.372;8.512;2022-09-11T18:02:25;21.50;1.00
6443;DHT22;3254;47.372;8.512;2022-09-11T18:04:51;21.30;1.00
6443;DHT22;3254;47.372;8.512;2022-09-11T18:07:17;21.10;1.00
6443;DHT22;3254;47.372;8.512;2022-09-11T18:09:43;21.00;1.00
6443;DHT22;3254;47.372;8.512;2022-09-11T18:12:10;20.80;1.00
6443;DHT22;3254;47.372;8.512;2022-09-11T18:14:39;20.70;1.00
6443;DHT22;3254;47.372;8.512;2022-09-11T18:17:08;20.50;1.00
6443;DHT22;3254;47.372;8.512;2022-09-11T18:19:34;20.40;1.00
6443;DHT22;3254;47.372;8.512;2022-09-11T18:22:03;20.30;1.00
6443;DHT22;3254;47.372;8.512;2022-09-11T18:24:31;20.20;1.00
6443;DHT22;3254;47.372;8.512;2022-09-11T18:26:57;20.10;1.00
6443;DHT22;3254;47.372;8.512;2022-09-11T18:29:23;20.00;1.00
6443;DHT22;3254;47.372;8.512;2022-09-11T18:31:50;19.90;1.00
6443;DHT22;3254;47.372;8.512;2022-09-11T18:34:25;19.80;1.00
6443;DHT22;3254;47.372;8.512;2022-09-11T18:36:51;19.70;1.00